Virtual Norwegian is not affiliated with Norwegian Air Shuttle in any way.
If you are looking for the real "Norwegian", or you wish to book Norwegian flights, please visit Norwegian.com


We use cookies to ensure you get the best experience on our website.   ACCEPT

KSWF - SWF - Newburgh (Stewart Intl)

General Info Alternate Airport
ICAO: KSWF Elevation: 491 ft ICAO: KJFK
IATA: SWF Country: United States IATA: JFK
City: Newburgh Charts: Log in to view charts City: New York
Name: Stewart Intl Hub: No Name John F Kennedy Intl
General Info
ICAO: KSWF
IATA: SWF
City: Newburgh
Name: Stewart Intl
Elevation: 491 ft
Country: United States
Charts: Log in to view charts
Hub: No
 
Alternate Airport
ICAO: KJFK
IATA: JFK
City: New York
Name: John F Kennedy Intl

Weather
210645Z 28004KT 10SM SKC 25/23 A2979
Weather
210645Z 28004KT 10SM SKC 25/23 A2979

Runway Info
09
Length ILS/LOC Course
3602 m 110.10 092
16
Length ILS/LOC Heading
1830 m N/A 149
27
Length ILS/LOC Course
3602 m 109.95 272
34
Length ILS/LOC Heading
1830 m N/A 329

NOTAMs
NOTAMs currently unavailable.
NOTAMs
NOTAMs currently unavailable

Route map
Airport
Airport (hub)